Time;durP1;ratioP1;P1;durP2;ratioP2;P2;SDS_P1;SDS_P2;PMS_P1;PMS_P2;Temp;Humidity;BMP_temperature;BMP_pressure;BME280_temperature;BME280_humidity;BME280_pressure;Samples;Min_cycle;Max_cycle;Signal;HPM_P1;HPM_P2
2022/05/14 00:01:51;;;;;;;2.97;1.75;;;26.10;51.40;;;;;;6284819;27;81448;-71
2022/05/14 00:04:51;;;;;;;3.45;2.00;;;26.10;51.40;;;;;;6284651;27;80583;-69
2022/05/14 00:07:52;;;;;;;3.75;2.08;;;26.10;51.50;;;;;;6280657;27;82264;-69
2022/05/14 00:14:12;;;;;;;3.05;1.90;;;26.10;51.50;;;;;;6283925;27;85259;-69
2022/05/14 00:17:12;;;;;;;1.98;1.88;;;26.10;51.50;;;;;;6284367;27;80320;-69
2022/05/14 00:20:13;;;;;;;2.67;1.92;;;26.10;51.50;;;;;;6284367;27;80107;-69
2022/05/14 00:23:14;;;;;;;3.15;2.42;;;26.10;51.60;;;;;;6284116;27;80159;-69
2022/05/14 00:26:14;;;;;;;2.22;1.98;;;26.10;51.80;;;;;;6284444;27;80662;-68
2022/05/14 00:29:15;;;;;;;3.58;2.47;;;26.20;51.80;;;;;;6282432;27;80821;-67
2022/05/14 00:32:15;;;;;;;5.65;2.63;;;26.20;51.80;;;;;;6282315;27;81526;-67
2022/05/14 00:35:16;;;;;;;2.58;1.95;;;26.20;51.90;;;;;;6275809;27;87801;-66
2022/05/14 00:38:16;;;;;;;4.72;2.10;;;26.20;52.50;;;;;;6274950;27;80308;-66
2022/05/14 00:41:17;;;;;;;3.15;1.88;;;26.20;52.10;;;;;;6282064;27;81839;-68
2022/05/14 00:44:18;;;;;;;2.95;2.20;;;26.10;52.00;;;;;;6283770;27;80475;-67
2022/05/14 00:47:18;;;;;;;2.75;1.80;;;26.10;52.00;;;;;;6284245;27;80389;-67
2022/05/14 00:50:19;;;;;;;2.65;1.85;;;26.10;52.10;;;;;;6281081;27;81627;-67
2022/05/14 00:53:19;;;;;;;2.00;1.65;;;26.10;52.10;;;;;;6282100;27;83144;-68
2022/05/14 00:56:20;;;;;;;4.05;2.20;;;26.10;52.10;;;;;;6282040;27;83140;-68
2022/05/14 00:59:20;;;;;;;3.55;2.22;;;26.10;51.90;;;;;;6283909;27;80726;-69
2022/05/14 01:02:21;;;;;;;3.33;2.20;;;26.20;51.80;;;;;;6282578;27;83150;-70
2022/05/14 01:05:23;;;;;;;2.25;1.92;;;26.20;51.80;;;;;;6278695;27;80256;-68
2022/05/14 01:08:24;;;;;;;3.22;2.25;;;26.20;51.70;;;;;;6282736;27;83270;-67
2022/05/14 01:11:24;;;;;;;11.60;2.97;;;26.20;51.80;;;;;;6265241;27;83110;-66
2022/05/14 01:14:25;;;;;;;4.20;2.17;;;26.20;51.60;;;;;;6281498;27;81826;-65
2022/05/14 01:17:29;;;;;;;2.88;2.00;;;26.20;51.60;;;;;;6282037;27;81539;-66
2022/05/14 01:20:35;;;;;;;3.97;2.33;;;26.20;51.50;;;;;;6281611;27;83040;-67
2022/05/14 01:26:27;;;;;;;6.22;1.80;;;26.20;51.50;;;;;;6282421;27;82114;-66
2022/05/14 01:26:58;;;;;;;3.75;2.20;;;26.20;51.40;;;;;;6281980;27;83643;-66
2022/05/14 01:29:59;;;;;;;4.13;1.90;;;26.10;51.30;;;;;;6281837;27;83099;-67
2022/05/14 01:33:07;;;;;;;2.65;1.95;;;26.10;51.10;;;;;;6282319;27;80516;-67
2022/05/14 01:36:14;;;;;;;2.13;1.92;;;26.20;51.10;;;;;;6265269;27;83308;-67
2022/05/14 01:39:15;;;;;;;3.53;1.80;;;26.20;51.00;;;;;;6283505;27;80333;-67
2022/05/14 01:42:16;;;;;;;2.00;1.80;;;26.20;51.00;;;;;;6281065;27;82132;-67
2022/05/14 01:45:16;;;;;;;7.60;2.28;;;26.20;50.90;;;;;;6283601;27;80242;-66
2022/05/14 01:48:17;;;;;;;3.90;2.10;;;26.20;50.90;;;;;;6282027;27;81908;-67
2022/05/14 01:51:18;;;;;;;2.80;2.15;;;26.20;51.30;;;;;;6282012;27;82342;-69
2022/05/14 01:54:18;;;;;;;5.75;2.38;;;26.20;50.60;;;;;;6283496;27;80230;-72
2022/05/14 01:57:19;;;;;;;2.50;1.80;;;26.20;50.70;;;;;;6281474;27;83253;-72
2022/05/14 02:00:21;;;;;;;3.20;1.60;;;26.20;50.90;;;;;;6268856;27;83100;-67
2022/05/14 02:03:25;;;;;;;2.43;2.00;;;26.20;50.80;;;;;;6275910;27;83607;-70
2022/05/14 02:06:25;;;;;;;3.88;2.20;;;26.20;50.90;;;;;;6285054;27;82219;-68
2022/05/14 02:09:26;;;;;;;3.63;2.22;;;26.20;51.20;;;;;;6285126;27;82831;-66
2022/05/14 02:12:30;;;;;;;1.98;1.80;;;26.20;51.10;;;;;;6285269;27;83743;-67
2022/05/14 02:15:31;;;;;;;3.88;2.25;;;26.20;51.20;;;;;;6285063;27;81435;-70
2022/05/14 02:18:32;;;;;;;3.58;2.00;;;26.20;51.30;;;;;;6285509;27;83273;-68
2022/05/14 02:21:32;;;;;;;2.70;2.08;;;26.20;51.20;;;;;;6285015;27;83039;-67
2022/05/14 02:24:33;;;;;;;4.60;2.55;;;26.20;51.30;;;;;;6285043;27;81948;-68
2022/05/14 02:27:35;;;;;;;3.33;1.90;;;26.20;51.20;;;;;;6282029;27;83218;-70
2022/05/14 02:30:35;;;;;;;3.42;2.00;;;26.20;51.50;;;;;;6285131;27;80582;-69
2022/05/14 02:33:36;;;;;;;4.75;1.95;;;26.20;51.40;;;;;;6285285;27;83088;-66
2022/05/14 02:36:36;;;;;;;2.58;1.90;;;26.20;51.50;;;;;;6284996;27;80262;-65
2022/05/14 02:39:37;;;;;;;4.85;1.83;;;26.20;51.40;;;;;;6286070;27;80603;-65
2022/05/14 02:42:38;;;;;;;9.95;2.25;;;26.20;51.70;;;;;;6284995;27;83287;-67
2022/05/14 02:45:38;;;;;;;3.05;1.90;;;26.20;51.30;;;;;;6286298;27;81497;-67
2022/05/14 02:48:39;;;;;;;4.68;2.25;;;26.20;51.40;;;;;;6285171;27;83289;-69
2022/05/14 02:51:40;;;;;;;10.98;2.10;;;26.20;51.40;;;;;;6284776;27;82803;-72
2022/05/14 02:54:41;;;;;;;7.03;2.30;;;26.20;51.20;;;;;;6284630;27;81736;-65
2022/05/14 02:57:41;;;;;;;4.85;2.40;;;26.10;51.20;;;;;;6284178;27;82136;-64
2022/05/14 03:00:42;;;;;;;2.92;1.95;;;26.20;51.10;;;;;;6286415;27;82297;-68
2022/05/14 03:03:43;;;;;;;3.30;1.80;;;26.10;50.90;;;;;;6282355;27;81416;-67
2022/05/14 03:06:43;;;;;;;5.72;2.28;;;26.10;51.00;;;;;;6284508;27;83122;-68
2022/05/14 03:09:44;;;;;;;7.30;2.45;;;26.10;51.00;;;;;;6284681;27;80112;-68
2022/05/14 03:12:45;;;;;;;6.82;2.40;;;26.10;51.00;;;;;;6284122;27;81684;-65
2022/05/14 03:15:46;;;;;;;3.85;2.40;;;26.10;50.90;;;;;;6283234;27;80404;-67
2022/05/14 03:18:46;;;;;;;4.82;2.65;;;26.10;51.10;;;;;;6285844;27;80860;-64
2022/05/14 03:21:47;;;;;;;4.95;2.38;;;26.10;51.10;;;;;;6284012;27;82596;-65
2022/05/14 03:24:49;;;;;;;5.57;2.72;;;26.10;51.40;;;;;;6284108;27;83220;-66
2022/05/14 03:27:49;;;;;;;5.97;2.30;;;26.10;51.20;;;;;;6285145;27;81705;-72
2022/05/14 03:30:50;;;;;;;2.75;2.10;;;26.10;50.90;;;;;;6280022;27;81227;-67
2022/05/14 03:33:50;;;;;;;12.30;2.92;;;26.10;50.80;;;;;;6276999;27;82952;-67
2022/05/14 03:36:51;;;;;;;3.08;2.08;;;26.10;50.50;;;;;;6284082;27;83240;-67
2022/05/14 03:39:52;;;;;;;3.03;2.28;;;26.10;50.40;;;;;;6284056;27;82217;-67
2022/05/14 03:42:53;;;;;;;4.93;2.55;;;26.10;50.40;;;;;;6285675;27;80226;-69
2022/05/14 03:45:53;;;;;;;5.05;2.35;;;26.10;50.50;;;;;;6284198;27;81668;-66
2022/05/14 03:48:54;;;;;;;2.88;2.10;;;26.10;50.50;;;;;;6285167;27;81290;-67
2022/05/14 03:51:55;;;;;;;3.97;2.30;;;26.00;50.30;;;;;;6285496;27;80323;-73
2022/05/14 03:54:55;;;;;;;3.22;2.13;;;26.10;50.40;;;;;;6285634;27;80229;-73
2022/05/14 03:57:56;;;;;;;3.35;2.25;;;26.10;50.30;;;;;;6280061;27;80366;-72
2022/05/14 04:00:57;;;;;;;3.78;2.70;;;26.10;50.20;;;;;;6272858;27;83085;-74
2022/05/14 04:03:58;;;;;;;5.22;2.25;;;26.10;50.00;;;;;;6286396;27;80423;-70
2022/05/14 04:06:58;;;;;;;9.73;2.03;;;26.10;49.90;;;;;;6285465;27;80484;-70
2022/05/14 04:09:59;;;;;;;4.53;2.63;;;26.10;49.80;;;;;;6285256;27;80226;-72
2022/05/14 04:13:00;;;;;;;3.45;2.42;;;26.10;49.80;;;;;;6277161;27;82091;-71
2022/05/14 04:16:01;;;;;;;2.90;2.25;;;26.10;49.90;;;;;;6283341;27;83233;-67
2022/05/14 04:19:02;;;;;;;5.45;2.92;;;26.10;49.90;;;;;;6271741;27;82582;-67
2022/05/14 04:22:03;;;;;;;3.97;2.70;;;26.10;50.20;;;;;;6262631;27;80201;-67
2022/05/14 04:25:04;;;;;;;4.97;2.50;;;26.10;50.30;;;;;;6282297;27;83420;-68
2022/05/14 04:28:05;;;;;;;3.40;2.45;;;26.10;50.20;;;;;;6283463;27;82743;-69
2022/05/14 04:31:05;;;;;;;5.47;2.50;;;26.10;50.20;;;;;;6282910;27;81434;-69
2022/05/14 04:34:07;;;;;;;2.95;2.42;;;26.10;50.00;;;;;;6282748;27;83574;-68
2022/05/14 04:37:08;;;;;;;9.50;2.28;;;26.10;49.90;;;;;;6283077;27;82013;-68
2022/05/14 04:40:09;;;;;;;6.72;2.63;;;26.20;49.80;;;;;;6282725;27;83190;-69
2022/05/14 04:43:10;;;;;;;4.43;2.50;;;26.20;49.70;;;;;;6282003;27;83214;-68
2022/05/14 04:46:10;;;;;;;3.28;2.42;;;26.20;49.80;;;;;;6284318;27;81209;-68
2022/05/14 04:49:11;;;;;;;5.15;2.88;;;26.10;49.50;;;;;;6282278;27;82711;-67
2022/05/14 04:52:12;;;;;;;3.25;2.45;;;26.10;49.90;;;;;;6281909;27;82339;-67
2022/05/14 04:55:13;;;;;;;8.77;3.08;;;26.10;50.30;;;;;;6266815;27;80374;-67
2022/05/14 04:58:15;;;;;;;3.88;2.58;;;26.10;50.20;;;;;;6278245;27;82300;-65
2022/05/14 05:01:16;;;;;;;3.53;2.50;;;26.10;50.60;;;;;;6277402;27;80573;-62
2022/05/14 05:04:16;;;;;;;6.93;2.58;;;26.10;50.70;;;;;;6281730;27;83618;-65
2022/05/14 05:07:18;;;;;;;6.15;2.85;;;26.00;50.80;;;;;;6281588;27;82912;-71
2022/05/14 05:10:20;;;;;;;6.03;2.58;;;26.00;51.20;;;;;;6272376;27;81955;-72
2022/05/14 05:13:20;;;;;;;3.42;2.15;;;26.10;51.70;;;;;;6283618;27;81423;-68
2022/05/14 05:16:21;;;;;;;6.30;2.50;;;26.00;51.80;;;;;;6282969;27;80089;-76
2022/05/14 05:19:21;;;;;;;8.43;2.90;;;26.10;52.10;;;;;;6284466;27;80330;-77
2022/05/14 05:22:22;;;;;;;11.32;2.60;;;26.10;52.40;;;;;;6280145;27;81362;-75
2022/05/14 05:25:22;;;;;;;15.63;3.50;;;26.20;52.40;;;;;;6275477;27;80896;-75
2022/05/14 05:28:23;;;;;;;8.10;3.08;;;26.10;52.70;;;;;;6272938;27;80506;-77
2022/05/14 05:31:23;;;;;;;8.93;2.95;;;26.20;52.50;;;;;;6277190;27;80643;-71
2022/05/14 05:34:24;;;;;;;10.90;2.72;;;26.20;52.40;;;;;;6278878;27;79960;-78
2022/05/14 05:37:24;;;;;;;9.65;2.70;;;26.30;52.70;;;;;;6280929;27;80570;-78
2022/05/14 05:40:25;;;;;;;11.18;3.00;;;26.30;52.20;;;;;;6275831;27;80314;-70
2022/05/14 05:43:26;;;;;;;6.47;3.00;;;26.30;50.50;;;;;;6281364;27;80467;-68
2022/05/14 05:46:27;;;;;;;12.88;3.55;;;26.30;48.40;;;;;;6287051;27;81058;-67
2022/05/14 05:49:27;;;;;;;24.38;4.03;;;26.10;48.10;;;;;;6285424;27;80855;-66
2022/05/14 05:52:28;;;;;;;12.85;3.58;;;26.10;47.60;;;;;;6278406;27;80424;-65
2022/05/14 05:58:48;;;;;;;9.82;3.45;;;26.00;46.00;;;;;;6286681;27;81359;-67
2022/05/14 06:01:48;;;;;;;8.15;3.53;;;25.90;44.60;;;;;;6285782;27;80544;-66
2022/05/14 06:04:49;;;;;;;24.35;3.88;;;25.90;45.10;;;;;;6287005;27;80790;-67
2022/05/14 06:07:49;;;;;;;8.60;3.30;;;25.90;45.00;;;;;;6286696;27;81415;-67
2022/05/14 06:10:50;;;;;;;7.35;3.50;;;26.00;45.30;;;;;;6286830;27;80392;-67
2022/05/14 06:13:50;;;;;;;7.57;4.00;;;26.00;44.20;;;;;;6274712;27;80333;-67
2022/05/14 06:16:51;;;;;;;7.72;4.57;;;26.00;43.80;;;;;;6286429;27;80296;-68
2022/05/14 06:19:51;;;;;;;12.52;5.18;;;26.00;44.20;;;;;;6275023;27;80404;-67
2022/05/14 06:22:52;;;;;;;13.38;7.10;;;25.90;43.90;;;;;;6263845;27;80655;-68
2022/05/14 06:25:53;;;;;;;19.08;9.90;;;25.90;44.50;;;;;;6268723;27;80276;-70
2022/05/14 06:28:53;;;;;;;22.60;8.77;;;25.90;43.90;;;;;;6271800;27;80885;-69
2022/05/14 06:31:54;;;;;;;24.42;11.13;;;25.90;43.90;;;;;;6266539;27;80870;-70
2022/05/14 06:34:54;;;;;;;19.63;10.73;;;25.90;44.20;;;;;;6258817;27;84251;-67
2022/05/14 06:37:55;;;;;;;19.35;7.95;;;25.90;44.50;;;;;;6283119;27;83725;-70
2022/05/14 06:40:55;;;;;;;17.05;5.57;;;25.70;42.80;;;;;;6286111;27;82989;-68
2022/05/14 06:43:56;;;;;;;13.07;5.30;;;25.30;42.40;;;;;;6286452;27;81552;-70
2022/05/14 06:46:56;;;;;;;15.10;5.90;;;25.40;43.30;;;;;;6284681;27;80468;-69
2022/05/14 06:49:57;;;;;;;18.05;5.68;;;25.50;43.10;;;;;;6284972;27;80634;-67
2022/05/14 06:52:57;;;;;;;13.13;6.10;;;25.60;43.10;;;;;;6286303;27;80653;-68
2022/05/14 06:56:01;;;;;;;9.93;5.35;;;25.70;43.90;;;;;;6286173;27;80436;-71
2022/05/14 06:59:02;;;;;;;9.70;4.13;;;25.70;43.20;;;;;;6285588;27;80475;-69
2022/05/14 07:02:02;;;;;;;20.00;4.05;;;25.80;43.20;;;;;;6270659;27;80346;-66
2022/05/14 07:08:22;;;;;;;11.80;3.40;;;25.80;43.20;;;;;;6285119;27;83461;-65
2022/05/14 07:11:23;;;;;;;9.38;3.20;;;25.80;43.60;;;;;;6277400;27;80417;-68
2022/05/14 07:14:23;;;;;;;6.40;2.80;;;25.90;43.80;;;;;;6280416;27;80742;-66
2022/05/14 07:17:25;;;;;;;7.60;3.05;;;25.80;43.30;;;;;;6281967;27;80228;-68
2022/05/14 07:20:26;;;;;;;8.88;3.50;;;25.80;43.10;;;;;;6280070;27;80504;-69
2022/05/14 07:23:26;;;;;;;8.80;3.45;;;25.90;43.50;;;;;;6285230;27;80326;-67
2022/05/14 07:26:27;;;;;;;14.98;3.50;;;25.90;43.30;;;;;;6278117;27;81592;-68
2022/05/14 07:29:28;;;;;;;20.23;3.38;;;25.90;44.10;;;;;;6283883;27;80742;-67
2022/05/14 07:32:28;;;;;;;7.70;2.67;;;26.00;43.00;;;;;;6265976;27;80415;-68
2022/05/14 07:35:29;;;;;;;9.80;2.72;;;26.00;43.00;;;;;;6264728;27;80730;-68
2022/05/14 07:38:32;;;;;;;6.82;2.30;;;26.00;41.90;;;;;;6281722;27;81751;-70
2022/05/14 07:41:32;;;;;;;9.07;2.47;;;25.90;42.20;;;;;;6273819;27;80841;-75
2022/05/14 07:44:33;;;;;;;10.48;3.30;;;25.90;42.40;;;;;;6285383;27;80419;-67
2022/05/14 07:47:35;;;;;;;14.85;3.72;;;25.90;41.20;;;;;;6284137;27;80390;-67
2022/05/14 07:50:35;;;;;;;6.95;3.05;;;25.70;40.10;;;;;;6278590;27;83472;-67
2022/05/14 07:53:36;;;;;;;5.03;2.35;;;25.50;41.80;;;;;;6285079;27;80513;-70
2022/05/14 07:56:38;;;;;;;6.22;2.55;;;25.30;40.20;;;;;;6281161;27;81547;-66
2022/05/14 07:59:38;;;;;;;3.83;2.45;;;24.80;40.50;;;;;;6285162;27;80758;-73
2022/05/14 08:02:39;;;;;;;6.28;2.70;;;24.60;41.00;;;;;;6273656;27;80445;-74
2022/05/14 08:05:40;;;;;;;8.00;2.55;;;24.80;41.20;;;;;;6284166;27;80791;-69
2022/05/14 08:08:41;;;;;;;5.53;2.67;;;25.10;41.80;;;;;;6285199;27;80308;-68
2022/05/14 08:11:42;;;;;;;13.50;2.70;;;25.10;41.80;;;;;;6282662;27;83544;-67
2022/05/14 08:14:42;;;;;;;8.75;2.72;;;25.20;42.30;;;;;;6268237;27;81223;-65
2022/05/14 08:17:43;;;;;;;6.35;3.33;;;25.30;41.90;;;;;;6267735;27;80953;-67
2022/05/14 08:20:44;;;;;;;9.63;2.95;;;25.20;41.80;;;;;;6267033;27;80208;-67
2022/05/14 08:27:04;;;;;;;6.38;2.78;;;25.10;41.40;;;;;;6272619;27;80051;-70
2022/05/14 08:30:04;;;;;;;11.43;4.13;;;24.80;40.50;;;;;;6284532;27;80782;-69
2022/05/14 08:33:07;;;;;;;7.40;2.92;;;24.70;42.30;;;;;;6284147;27;80369;-67
2022/05/14 08:36:07;;;;;;;12.63;2.45;;;25.10;42.50;;;;;;6283802;27;81238;-67
2022/05/14 08:39:08;;;;;;;7.35;2.70;;;25.30;42.70;;;;;;6282218;27;81432;-70
2022/05/14 08:42:08;;;;;;;8.98;2.60;;;25.30;42.10;;;;;;6277759;27;80971;-71
2022/05/14 08:45:10;;;;;;;8.32;2.70;;;25.40;42.10;;;;;;6281390;27;80315;-65
2022/05/14 08:48:11;;;;;;;5.50;2.72;;;25.40;41.20;;;;;;6282801;27;80505;-71
2022/05/14 08:51:11;;;;;;;7.60;3.15;;;25.30;41.10;;;;;;6282695;27;80742;-71
2022/05/14 08:54:13;;;;;;;11.52;2.97;;;25.40;40.70;;;;;;6282884;27;82689;-71
2022/05/14 08:57:14;;;;;;;7.85;2.65;;;25.40;41.00;;;;;;6282198;27;80431;-72
2022/05/14 09:00:14;;;;;;;6.25;2.38;;;25.30;40.30;;;;;;6278934;27;80894;-72
2022/05/14 09:03:15;;;;;;;4.95;2.40;;;24.80;39.70;;;;;;6284092;27;80856;-72
2022/05/14 09:06:15;;;;;;;7.15;2.90;;;24.30;39.90;;;;;;6283627;27;80451;-71
2022/05/14 09:09:16;;;;;;;8.18;2.72;;;24.40;40.80;;;;;;6283962;27;80168;-72
2022/05/14 09:12:16;;;;;;;7.78;2.70;;;24.70;40.90;;;;;;6282845;27;80562;-71
2022/05/14 09:15:19;;;;;;;7.53;2.78;;;25.00;41.10;;;;;;6281665;27;80545;-72
2022/05/14 09:18:19;;;;;;;9.90;3.05;;;24.80;39.80;;;;;;6283102;27;81637;-71
2022/05/14 09:21:21;;;;;;;6.35;2.65;;;24.50;40.90;;;;;;6283762;27;80441;-72
2022/05/14 09:24:25;;;;;;;7.93;2.92;;;24.80;40.70;;;;;;6283712;27;80176;-71
2022/05/14 09:27:26;;;;;;;5.20;3.13;;;24.60;40.60;;;;;;6283272;27;81163;-71
2022/05/14 09:30:26;;;;;;;7.13;3.13;;;24.30;41.10;;;;;;6283610;27;80645;-71
2022/05/14 09:33:27;;;;;;;6.53;3.05;;;24.50;41.60;;;;;;6283333;27;80805;-71
2022/05/14 09:36:29;;;;;;;4.88;2.70;;;24.50;40.60;;;;;;6282360;27;80201;-71
2022/05/14 09:39:29;;;;;;;8.63;2.70;;;24.30;40.70;;;;;;6282641;27;80962;-72
2022/05/14 09:42:30;;;;;;;9.40;2.47;;;24.40;40.70;;;;;;6280461;27;80532;-71
2022/05/14 09:45:30;;;;;;;9.43;2.40;;;24.60;40.70;;;;;;6282566;27;80351;-71
2022/05/14 09:48:31;;;;;;;6.95;2.85;;;24.40;40.20;;;;;;6274637;27;80963;-72
2022/05/14 09:51:31;;;;;;;6.60;2.90;;;24.30;40.20;;;;;;6266688;27;80226;-71
2022/05/14 09:54:32;;;;;;;7.65;2.63;;;24.60;40.20;;;;;;6282775;27;80628;-71
2022/05/14 09:57:32;;;;;;;11.25;2.80;;;24.70;40.20;;;;;;6274673;27;80473;-72
2022/05/14 10:00:33;;;;;;;5.30;2.90;;;24.70;39.60;;;;;;6282294;27;80700;-72
2022/05/14 10:03:33;;;;;;;5.25;2.58;;;24.60;39.40;;;;;;6282771;27;81003;-72
2022/05/14 10:06:35;;;;;;;4.07;1.85;;;24.70;39.50;;;;;;6282854;27;80822;-72
2022/05/14 10:09:36;;;;;;;4.13;2.28;;;24.70;39.10;;;;;;6282177;27;80525;-71
2022/05/14 10:12:36;;;;;;;4.88;2.03;;;24.70;39.40;;;;;;6282312;27;80111;-71
2022/05/14 10:15:37;;;;;;;8.02;2.30;;;24.60;39.10;;;;;;6281746;27;80669;-71
2022/05/14 10:18:37;;;;;;;6.43;2.55;;;24.60;39.50;;;;;;6281290;27;80927;-72
2022/05/14 10:21:38;;;;;;;3.88;2.10;;;24.60;40.20;;;;;;6281818;27;80411;-72
2022/05/14 10:28:07;;;;;;;5.38;2.30;;;24.70;38.40;;;;;;6266372;27;80801;-72
2022/05/14 10:31:08;;;;;;;5.68;2.42;;;24.60;38.80;;;;;;6286347;27;80445;-72
2022/05/14 10:34:08;;;;;;;5.15;2.95;;;24.50;38.60;;;;;;6286078;27;80739;-72
2022/05/14 10:37:09;;;;;;;3.17;2.03;;;24.70;39.20;;;;;;6285808;27;80614;-72
2022/05/14 10:40:10;;;;;;;4.43;2.00;;;24.40;38.70;;;;;;6285875;27;80186;-72
2022/05/14 10:43:10;;;;;;;6.78;2.22;;;24.50;39.20;;;;;;6286370;27;80447;-72
2022/05/14 10:46:11;;;;;;;4.10;2.15;;;24.20;39.10;;;;;;6285863;27;81454;-72
2022/05/14 10:49:11;;;;;;;8.05;2.47;;;24.30;39.10;;;;;;6285541;27;81529;-72
2022/05/14 10:52:12;;;;;;;5.50;1.95;;;24.40;39.20;;;;;;6279289;27;80474;-70
2022/05/14 10:55:13;;;;;;;4.85;2.20;;;24.60;39.00;;;;;;6274092;27;80570;-70
2022/05/14 10:58:13;;;;;;;5.25;1.95;;;24.60;39.00;;;;;;6280357;27;83654;-71
2022/05/14 11:01:14;;;;;;;11.23;2.63;;;24.60;39.50;;;;;;6283612;27;83264;-71
2022/05/14 11:04:15;;;;;;;4.18;1.95;;;24.70;38.90;;;;;;6285178;27;80263;-71
2022/05/14 11:07:15;;;;;;;5.55;2.55;;;24.90;38.60;;;;;;6285457;27;80593;-71
2022/05/14 11:10:16;;;;;;;3.83;2.20;;;24.80;38.90;;;;;;6285361;27;80293;-71
2022/05/14 11:13:17;;;;;;;6.05;2.30;;;24.90;39.00;;;;;;6285549;27;80941;-71
2022/05/14 11:16:17;;;;;;;7.35;3.25;;;25.00;38.80;;;;;;6283628;27;83934;-71
2022/05/14 11:19:18;;;;;;;8.60;2.30;;;24.70;38.40;;;;;;6285327;27;80176;-71
2022/05/14 11:22:18;;;;;;;5.55;2.10;;;24.60;38.70;;;;;;6285621;27;80505;-71
2022/05/14 11:25:22;;;;;;;4.07;2.00;;;24.90;38.70;;;;;;6285223;27;81693;-71
2022/05/14 11:28:25;;;;;;;9.88;3.00;;;24.90;38.50;;;;;;6277253;27;80627;-72
2022/05/14 11:31:26;;;;;;;8.85;3.10;;;24.70;38.80;;;;;;6283441;27;80598;-73
2022/05/14 11:34:26;;;;;;;6.45;2.00;;;24.30;38.50;;;;;;6284765;27;80357;-71
2022/05/14 11:37:27;;;;;;;4.63;2.38;;;24.30;39.10;;;;;;6284924;27;80858;-71
2022/05/14 11:40:27;;;;;;;9.55;2.30;;;24.60;39.10;;;;;;6285031;27;81052;-71
2022/05/14 11:43:28;;;;;;;4.78;2.53;;;24.70;39.00;;;;;;6284927;27;81794;-71
2022/05/14 11:46:29;;;;;;;2.17;1.80;;;24.90;38.60;;;;;;6284293;27;81824;-71
2022/05/14 11:49:29;;;;;;;7.18;4.55;;;24.90;38.60;;;;;;6282634;27;80351;-70
2022/05/14 11:52:30;;;;;;;6.10;2.95;;;24.90;38.70;;;;;;6284770;27;81982;-70
2022/05/14 11:55:30;;;;;;;6.97;2.95;;;24.80;38.50;;;;;;6278760;27;80416;-70
2022/05/14 11:58:31;;;;;;;5.15;2.75;;;24.90;38.30;;;;;;6284989;27;80472;-70
2022/05/14 12:01:31;;;;;;;8.02;2.30;;;24.90;38.80;;;;;;6285078;27;80014;-70
2022/05/14 12:04:32;;;;;;;5.47;2.60;;;24.80;38.60;;;;;;6284483;27;81562;-70
2022/05/14 12:07:32;;;;;;;10.65;2.30;;;25.00;38.20;;;;;;6284821;27;80457;-70
2022/05/14 12:10:33;;;;;;;3.28;1.90;;;24.60;37.70;;;;;;6284341;27;81564;-71
2022/05/14 12:13:33;;;;;;;3.58;1.60;;;24.70;38.10;;;;;;6282996;27;80385;-70
2022/05/14 12:16:34;;;;;;;9.85;5.05;;;24.90;38.00;;;;;;6283963;27;81362;-72
2022/05/14 12:19:34;;;;;;;7.25;3.08;;;24.80;37.60;;;;;;6284263;27;80231;-71
2022/05/14 12:22:36;;;;;;;7.18;2.90;;;24.80;38.20;;;;;;6283932;27;80340;-73
2022/05/14 12:25:36;;;;;;;4.65;2.20;;;24.70;37.80;;;;;;6284576;27;81541;-71
2022/05/14 12:28:37;;;;;;;6.97;2.42;;;24.80;38.10;;;;;;6284180;27;80396;-72
2022/05/14 12:34:57;;;;;;;7.45;2.42;;;24.90;37.90;;;;;;6284002;27;80406;-72
2022/05/14 12:37:57;;;;;;;6.07;2.13;;;25.00;37.30;;;;;;6284108;27;80675;-71
2022/05/14 12:40:58;;;;;;;4.70;1.92;;;24.70;37.10;;;;;;6283360;27;80415;-71
2022/05/14 12:43:58;;;;;;;4.55;1.95;;;24.80;37.90;;;;;;6283823;27;80340;-69
2022/05/14 12:46:59;;;;;;;4.43;2.17;;;24.90;37.70;;;;;;6282382;27;81390;-71
2022/05/14 12:50:01;;;;;;;7.18;3.58;;;25.00;37.50;;;;;;6283910;27;80854;-71
2022/05/14 12:53:02;;;;;;;6.03;2.70;;;24.70;37.50;;;;;;6282259;27;81632;-71
2022/05/14 12:56:02;;;;;;;9.57;3.15;;;24.70;37.80;;;;;;6281800;27;80684;-71
2022/05/14 12:59:04;;;;;;;4.47;2.20;;;24.90;37.80;;;;;;6283346;27;80813;-71
2022/05/14 13:02:04;;;;;;;7.28;2.40;;;25.10;37.60;;;;;;6281734;27;82275;-71
2022/05/14 13:05:05;;;;;;;8.82;2.38;;;25.10;37.00;;;;;;6283138;27;80412;-71
2022/05/14 13:08:05;;;;;;;3.97;1.98;;;25.10;37.50;;;;;;6283019;27;81621;-71
2022/05/14 13:11:06;;;;;;;7.88;1.80;;;25.10;37.30;;;;;;6283923;27;80375;-71
2022/05/14 13:14:07;;;;;;;7.10;2.53;;;25.00;37.30;;;;;;6282554;27;80604;-71
2022/05/14 13:17:07;;;;;;;11.52;2.50;;;24.90;36.80;;;;;;6282153;27;80488;-70
2022/05/14 13:20:08;;;;;;;9.15;2.17;;;24.70;36.70;;;;;;6283052;27;80804;-72
2022/05/14 13:23:08;;;;;;;2.97;1.73;;;24.80;37.10;;;;;;6282477;27;81404;-67
2022/05/14 13:26:09;;;;;;;4.20;2.10;;;24.70;36.60;;;;;;6281441;27;81606;-68
2022/05/14 13:29:09;;;;;;;4.57;1.70;;;24.70;37.00;;;;;;6283154;27;80446;-69
2022/05/14 13:32:10;;;;;;;9.32;1.90;;;24.60;36.50;;;;;;6263632;27;80920;-68
2022/05/14 13:38:30;;;;;;;6.40;2.05;;;24.50;36.80;;;;;;6266543;27;85923;-68
2022/05/14 13:41:30;;;;;;;5.50;2.25;;;24.70;37.50;;;;;;6270661;27;80367;-68
2022/05/14 13:44:32;;;;;;;9.48;1.98;;;24.70;37.30;;;;;;6279042;27;84621;-71
2022/05/14 13:47:32;;;;;;;8.38;2.08;;;24.70;37.50;;;;;;6267195;27;80802;-74
2022/05/14 13:50:34;;;;;;;13.43;2.78;;;24.90;38.00;;;;;;6258416;27;80316;-67
2022/05/14 13:53:35;;;;;;;5.88;1.98;;;24.90;37.80;;;;;;6263553;27;80323;-67
2022/05/14 13:56:35;;;;;;;3.92;1.77;;;25.10;37.50;;;;;;6264665;27;80938;-67
2022/05/14 13:59:36;;;;;;;8.45;2.28;;;25.00;36.80;;;;;;6263182;27;80590;-68
2022/05/14 14:02:37;;;;;;;9.10;2.58;;;24.90;36.80;;;;;;6266011;27;80427;-68
2022/05/14 14:05:37;;;;;;;5.38;2.45;;;24.90;37.30;;;;;;6267818;27;83645;-67
2022/05/14 14:08:38;;;;;;;7.90;2.60;;;25.10;37.50;;;;;;6282958;27;80627;-68
2022/05/14 14:11:44;;;;;;;9.95;2.33;;;25.10;37.60;;;;;;6267156;27;80832;-68
2022/05/14 14:14:44;;;;;;;;;;;25.20;37.70;;;;;;6268016;27;81252;-66
2022/05/14 14:17:45;;;;;;;5.95;2.08;;;25.20;37.60;;;;;;6293624;27;80314;-60
2022/05/14 14:20:45;;;;;;;8.30;2.80;;;25.20;37.70;;;;;;6286904;27;80257;-69
2022/05/14 14:23:46;;;;;;;5.60;2.60;;;25.10;37.40;;;;;;6286837;27;80347;-68
2022/05/14 14:26:47;;;;;;;11.57;2.88;;;25.20;37.50;;;;;;6281299;27;82068;-67
2022/05/14 14:29:47;;;;;;;6.57;2.38;;;25.30;37.20;;;;;;6286987;27;82134;-69
2022/05/14 14:32:48;;;;;;;5.40;2.63;;;25.30;37.20;;;;;;6267154;27;81953;-65
2022/05/14 14:35:48;;;;;;;4.25;2.20;;;25.30;37.60;;;;;;6263184;27;80459;-67
2022/05/14 14:38:49;;;;;;;5.00;2.00;;;25.40;37.30;;;;;;6265534;27;80887;-65
2022/05/14 14:41:49;;;;;;;4.82;2.08;;;25.30;36.50;;;;;;6260157;27;80308;-67
2022/05/14 14:44:53;;;;;;;11.35;2.90;;;25.40;36.80;;;;;;6263753;27;81830;-65
2022/05/14 14:47:53;;;;;;;6.25;2.30;;;25.40;36.60;;;;;;6262813;27;81563;-66
2022/05/14 14:50:54;;;;;;;7.53;1.90;;;25.50;36.50;;;;;;6263623;27;81619;-65
2022/05/14 14:53:54;;;;;;;2.78;1.98;;;25.50;36.80;;;;;;6263723;27;80319;-64
2022/05/14 14:56:55;;;;;;;7.30;2.33;;;25.50;36.60;;;;;;6277454;27;80662;-67
2022/05/14 14:59:55;;;;;;;5.40;2.30;;;25.40;36.80;;;;;;6286024;27;80603;-66
2022/05/14 15:02:56;;;;;;;6.97;2.47;;;25.50;36.90;;;;;;6282049;27;80806;-67
2022/05/14 15:05:56;;;;;;;8.65;2.45;;;25.50;36.20;;;;;;6280546;27;80079;-66
2022/05/14 15:08:57;;;;;;;5.75;1.80;;;25.50;36.40;;;;;;6284820;27;81091;-69
2022/05/14 15:11:57;;;;;;;4.70;2.63;;;25.50;36.50;;;;;;6285660;27;80514;-67
2022/05/14 15:14:58;;;;;;;5.82;2.28;;;25.50;36.30;;;;;;6285379;27;80346;-71
2022/05/14 15:17:58;;;;;;;5.30;2.47;;;25.50;36.40;;;;;;6285179;27;80663;-69
2022/05/14 15:21:00;;;;;;;7.18;2.60;;;25.40;36.10;;;;;;6285493;27;80294;-71
2022/05/14 15:24:01;;;;;;;8.80;2.92;;;25.40;36.30;;;;;;6285073;27;80272;-71
2022/05/14 15:27:01;;;;;;;7.05;2.83;;;25.30;36.30;;;;;;6282188;27;80623;-70
2022/05/14 15:30:02;;;;;;;13.52;4.13;;;25.40;36.90;;;;;;6260662;27;80710;-71
2022/05/14 15:33:05;;;;;;;13.85;3.05;;;25.50;37.20;;;;;;6273351;27;80633;-70
2022/05/14 15:36:06;;;;;;;12.07;3.10;;;25.40;37.20;;;;;;6283156;27;82562;-66
2022/05/14 15:39:08;;;;;;;14.00;3.67;;;25.40;37.80;;;;;;6284500;27;80405;-78
2022/05/14 15:42:10;;;;;;;8.07;3.22;;;25.50;37.50;;;;;;6283891;27;80307;-71
2022/05/14 15:45:10;;;;;;;8.48;2.63;;;25.50;38.00;;;;;;6279709;27;80380;-64
2022/05/14 15:48:11;;;;;;;5.28;2.50;;;25.50;37.40;;;;;;6264629;27;80451;-64
2022/05/14 15:51:11;;;;;;;7.85;2.72;;;25.50;36.60;;;;;;6278113;27;81888;-70
2022/05/14 15:54:12;;;;;;;5.90;2.75;;;25.50;37.70;;;;;;6284311;27;80604;-74
2022/05/14 15:57:13;;;;;;;5.18;2.55;;;25.50;38.50;;;;;;6284719;27;81121;-68
2022/05/14 16:00:13;;;;;;;11.57;3.17;;;25.60;39.20;;;;;;6275687;27;81318;-68
2022/05/14 16:03:14;;;;;;;3.83;2.70;;;25.50;38.00;;;;;;6283382;27;80905;-69